Terminal Aerodrome Forecast
Issued by NWS Green Bay, WI

Home | Current Version | Previous Version | Text Only | Print | Product List | Glossary Off
Versions: 1 2 3 4 5 6 7 8 9 10 11 12 13 14 15 16 17 18

000
FTUS43 KGRB 280400 AAA
TAFGRB
TAF AMD
KGRB 280422Z 2804/2824 VRB03KT P6SM SCT025 OVC040
      TEMPO 2804/2806 5SM -TSRA BR BKN025CB
     FM280700 27010G17KT P6SM SCT025 BKN040
     FM281500 25016G26KT P6SM SCT040 BKN060=

USA.gov is the U.S. government's official web portal to all federal, state and local government web resources and services.